Data for 02/27/2010

Time Sea-Level Adjusted Pressure Absolute Pressure Temperature Relative Humidity Dew Point   
(mb) (inHg) (mb) (inHg) (C) (F) (%) (C) (F)
00:05 1014 29.94 843 24.89 -0.4 31.2 52 -9.2 15.4
00:10 1014 29.94 843 24.89 -0.6 30.9 49 -10 14
00:15 1014 29.94 843 24.89 -0.3 31.4 51 -9.4 15.1
00:20 1014 29.94 843 24.89 -0.4 31.3 50 -9.7 14.6
00:25 1014 29.94 843 24.89 -0.4 31.2 54 -8.7 16.3
00:30 1014 29.94 843 24.89 -0.6 30.9 53 -9.2 15.5
00:35 1014 29.94 843 24.89 -0.5 31.1 53 -8.9 15.9
00:40 1014 29.94 843 24.89 -0.4 31.3 52 -9 15.8
00:45 1014 29.94 843 24.89 -0.3 31.4 53 -8.9 16
00:50 1014 29.94 843 24.89 -0.3 31.5 49 -9.7 14.6
00:55 1013 29.91 843 24.89 -0 32 51 -9 15.8
01:00 1013 29.91 843 24.89 -0 32 50 -9.3 15.2
01:05 1013 29.91 843 24.89 -0.1 31.8 50 -9.2 15.4
01:10 1013 29.91 843 24.89 0.1 32.3 50 -9.2 15.5
01:15 1013 29.91 842 24.86 0.3 32.5 53 -8.3 17.1
01:20 1013 29.91 842 24.86 0 32 55 -8.1 17.5
01:25 1013 29.91 842 24.86 -0.2 31.7 55 -8.1 17.4
01:30 1013 29.91 842 24.86 -0.2 31.7 54 -8.4 16.8
01:35 1013 29.91 842 24.86 -0.4 31.3 56 -8.1 17.4
01:40 1013 29.91 842 24.86 -0.8 30.6 55 -8.6 16.5
01:45 1013 29.91 842 24.86 -0.7 30.8 56 -8.3 17
01:50 1013 29.91 842 24.86 -0.6 30.9 55 -8.5 16.7
01:55 1013 29.91 842 24.86 -0.3 31.4 57 -7.7 18.1
02:00 1013 29.91 842 24.86 -0.4 31.3 57 -8 17.6
02:05 1013 29.91 843 24.89 -0.4 31.2 56 -8.2 17.2
02:10 1013 29.91 843 24.89 -0.4 31.2 57 -8.1 17.5
02:15 1013 29.91 842 24.86 -0.6 30.9 56 -8.3 17.1
02:20 1013 29.91 842 24.86 -0.7 30.7 53 -9.1 15.6
02:25 1013 29.91 842 24.86 -0.6 30.9 56 -8.4 16.9
02:30 1013 29.91 842 24.86 -0.9 30.3 56 -8.6 16.6
02:35 1013 29.91 842 24.86 -1.2 29.8 54 -9.4 15
02:40 1013 29.91 842 24.86 -1 30.2 54 -9.1 15.7
02:45 1013 29.91 842 24.86 -0.8 30.6 56 -8.5 16.7
02:50 1013 29.91 842 24.86 -0.5 31 56 -8.2 17.2
02:55 1013 29.91 842 24.86 -0.7 30.8 55 -8.6 16.5
03:00 1013 29.91 842 24.86 -0.7 30.7 58 -8 17.5
03:05 1013 29.91 842 24.86 -0.9 30.4 57 -8.3 17.1
03:10 1012 29.88 842 24.86 -1.1 30.1 59 -8 17.6
03:15 1012 29.88 842 24.86 -1.1 30 61 -7.7 18.2
03:20 1012 29.88 842 24.86 -1.3 29.7 62 -7.6 18.3
03:25 1012 29.88 842 24.86 -1.4 29.5 60 -8.2 17.2
03:30 1012 29.88 842 24.86 -1.1 30 61 -7.7 18.1
03:35 1012 29.88 841 24.83 -1.2 29.9 61 -7.9 17.9
03:40 1012 29.88 841 24.83 -1.1 29.9 60 -8 17.6
03:45 1012 29.88 841 24.83 -1.2 29.9 61 -7.8 17.9
03:50 1012 29.88 841 24.83 -1.2 29.8 59 -8.3 17.1
03:55 1012 29.88 841 24.83 -1.1 30.1 58 -8.3 17.1
04:00 1012 29.88 841 24.83 -1.1 30 59 -8.1 17.4
04:05 1012 29.88 841 24.83 -1.1 30 59 -8.1 17.4
04:10 1012 29.88 841 24.83 -1.1 30.1 61 -7.8 18
04:15 1012 29.88 841 24.83 -1.2 29.9 61 -7.6 18.2
04:20 1012 29.88 841 24.83 -1.3 29.7 63 -7.4 18.6
04:25 1012 29.88 841 24.83 -1.5 29.4 65 -7.3 18.9
04:30 1012 29.88 841 24.83 -1.6 29.2 65 -7.4 18.7
04:35 1012 29.88 841 24.83 -1.8 28.7 64 -7.7 18.2
04:40 1012 29.88 841 24.83 -1.7 29 65 -7.5 18.5
04:45 1012 29.88 841 24.83 -1.6 29.1 65 -7.4 18.7
04:50 1012 29.88 841 24.83 -1.8 28.8 64 -7.7 18.1
04:55 1012 29.88 841 24.83 -1.6 29.1 64 -7.7 18.2
05:00 1012 29.88 841 24.83 -1.5 29.2 65 -7.3 18.8
05:05 1012 29.88 841 24.83 -1.6 29.2 65 -7.4 18.7
05:10 1012 29.88 841 24.83 -1.6 29.2 65 -7.4 18.7
05:15 1012 29.88 841 24.83 -1.6 29.1 65 -7.4 18.7
05:20 1012 29.88 841 24.83 -1.6 29 63 -7.7 18.1
05:25 1012 29.88 841 24.83 -1.5 29.4 62 -7.9 17.8
05:30 1012 29.88 841 24.83 -1.5 29.4 64 -7.4 18.6
05:35 1012 29.88 841 24.83 -1.4 29.4 60 -8.2 17.2
05:40 1012 29.88 841 24.83 -1.3 29.7 58 -8.4 16.9
05:45 1012 29.88 841 24.83 -1 30.2 58 -8.2 17.3
05:50 1012 29.88 841 24.83 -0.8 30.6 56 -8.4 16.9
05:55 1012 29.88 841 24.83 -0.6 30.9 57 -8.1 17.5
06:00 1012 29.88 841 24.83 -0.5 31.2 58 -7.7 18.1
06:05 1012 29.88 841 24.83 -0.7 30.8 60 -7.6 18.4
06:10 1012 29.88 841 24.83 -0.8 30.6 60 -7.5 18.5
06:15 1012 29.88 841 24.83 -0.7 30.7 58 -8.1 17.5
06:20 1012 29.88 841 24.83 -0.3 31.4 60 -7.3 18.9
06:25 1012 29.88 841 24.83 -0.5 31.1 62 -6.9 19.5
06:30 1012 29.88 841 24.83 -0.7 30.8 62 -7 19.4
06:35 1012 29.88 841 24.83 -0.8 30.6 60 -7.5 18.5
06:40 1012 29.88 841 24.83 -0.8 30.5 60 -7.7 18.2
06:45 1012 29.88 841 24.83 -0.9 30.3 65 -6.7 19.9
06:50 1012 29.88 841 24.83 -1.4 29.4 65 -7.2 19.1
06:55 1012 29.88 841 24.83 -1.5 29.3 65 -7.2 19
07:00 1012 29.88 841 24.83 -1.4 29.5 63 -7.6 18.3
07:05 1012 29.88 841 24.83 -1.2 29.8 58 -8.5 16.8
07:10 1012 29.88 841 24.83 -1 30.2 57 -8.5 16.7
07:15 1012 29.88 841 24.83 -1.1 30.1 62 -7.5 18.5
07:20 1012 29.88 841 24.83 -1.2 29.8 60 -8.1 17.5
07:25 1012 29.88 842 24.86 -1.2 29.8 63 -7.3 18.8
07:30 1012 29.88 842 24.86 -1.6 29.1 64 -7.6 18.3
07:35 1012 29.88 842 24.86 -1.6 29.1 64 -7.7 18.2
07:40 1013 29.91 842 24.86 -1.7 29 63 -7.8 18
07:45 1013 29.91 842 24.86 -1.4 29.4 58 -8.6 16.6
07:50 1013 29.91 842 24.86 -0.9 30.4 59 -7.9 17.8
07:55 1013 29.91 842 24.86 -1 30.2 60 -7.8 18
08:00 1013 29.91 842 24.86 -1.2 29.9 61 -7.8 17.9
08:05 1013 29.91 842 24.86 -1.2 29.8 64 -7.1 19.2
08:10 1013 29.91 842 24.86 -1.5 29.3 67 -6.9 19.5
08:15 1013 29.91 842 24.86 -1.7 28.9 66 -7.3 18.8
08:20 1013 29.91 842 24.86 -1.6 29.2 63 -7.7 18.1
08:25 1013 29.91 842 24.86 -1.5 29.4 63 -7.5 18.5
08:30 1012 29.88 842 24.86 -1.3 29.6 61 -8 17.7
08:35 1012 29.88 842 24.86 -1.1 30 61 -7.6 18.2
08:40 1012 29.88 842 24.86 -0.9 30.5 59 -7.9 17.9
08:45 1012 29.88 842 24.86 -0.6 30.8 59 -7.6 18.2
08:50 1012 29.88 842 24.86 -0.4 31.2 58 -7.6 18.2
08:55 1012 29.88 842 24.86 -0.3 31.5 59 -7.4 18.7
09:00 1012 29.88 842 24.86 -0.2 31.6 58 -7.4 18.7
09:05 1012 29.88 842 24.86 -0.1 31.9 57 -7.5 18.4
09:10 1012 29.88 841 24.83 0.1 32.1 56 -7.7 18.2
09:15 1012 29.88 841 24.83 0.2 32.4 55 -7.9 17.8
09:20 1012 29.88 841 24.83 0.5 32.8 53 -8 17.5
09:25 1012 29.88 841 24.83 0.8 33.4 52 -8.1 17.5
09:30 1012 29.88 841 24.83 1.1 34 49 -8.6 16.6
09:35 1012 29.88 841 24.83 1.4 34.4 50 -8 17.6
09:40 1012 29.88 841 24.83 1.6 34.9 50 -7.7 18.1
09:45 1012 29.88 841 24.83 1.6 34.8 50 -7.9 17.8
09:50 1012 29.88 841 24.83 1.8 35.3 47 -8.3 17
09:55 1012 29.88 841 24.83 2.1 35.8 46 -8.3 17.1
10:00 1012 29.88 841 24.83 2.4 36.2 46 -8.1 17.4
10:05 1012 29.88 841 24.83 2.6 36.6 47 -7.6 18.3
10:10 1012 29.88 841 24.83 2.8 37.1 44 -8.2 17.3
10:15 1012 29.88 841 24.83 3.2 37.8 42 -8.4 17
10:20 1012 29.88 841 24.83 3.4 38.1 43 -8.1 17.5
10:25 1012 29.88 841 24.83 3.3 37.9 43 -8.1 17.5
10:30 1012 29.88 841 24.83 3.2 37.8 45 -7.5 18.6
10:35 1012 29.88 841 24.83 3.6 38.4 46 -7 19.5
10:40 1012 29.88 841 24.83 3.5 38.3 48 -6.4 20.5
10:45 1012 29.88 841 24.83 3.1 37.6 50 -6.3 20.7
10:50 1012 29.88 841 24.83 3.1 37.5 48 -6.8 19.8
10:55 1012 29.88 841 24.83 3 37.5 48 -7 19.4
11:00 1012 29.88 841 24.83 3 37.4 48 -6.9 19.6
11:05 1012 29.88 841 24.83 3 37.3 50 -6.3 20.6
11:10 1012 29.88 841 24.83 3.4 38.1 48 -6.6 20.1
11:15 1012 29.88 841 24.83 3.5 38.3 47 -6.9 19.7
11:20 1011 29.85 841 24.83 3.3 37.9 50 -6.1 21.1
11:25 1011 29.85 841 24.83 3.1 37.6 46 -7.4 18.6
11:30 1011 29.85 841 24.83 3.5 38.4 45 -7.3 18.9
11:35 1012 29.88 841 24.83 4.2 39.6 41 -8 17.6
11:40 1011 29.85 841 24.83 4.2 39.5 43 -7.4 18.6
11:45 1011 29.85 841 24.83 4 39.2 43 -7.5 18.5
11:50 1011 29.85 841 24.83 4.5 40.1 40 -7.9 17.8
11:55 1011 29.85 841 24.83 5.3 41.6 39 -7.7 18.1
12:00 1011 29.85 840 24.81 3.9 39 47 -6.5 20.2
12:05 1011 29.85 840 24.81 3.2 37.8 50 -6.2 20.8
12:10 1011 29.85 840 24.81 3 37.4 49 -6.8 19.8
12:15 1011 29.85 840 24.81 3.9 39 48 -6.2 20.8
12:20 1011 29.85 840 24.81 4.3 39.7 46 -6.3 20.7
12:25 1011 29.85 840 24.81 4.3 39.8 42 -7.4 18.7
12:30 1011 29.85 840 24.81 5.6 42 39 -7.2 19.1
12:35 1011 29.85 840 24.81 4.6 40.2 45 -6.4 20.5
12:40 1011 29.85 840 24.81 3.8 38.9 46 -6.8 19.8
12:45 1011 29.85 840 24.81 5.4 41.8 41 -6.7 19.9
12:50 1011 29.85 840 24.81 5.1 41.2 41 -7.1 19.3
12:55 1011 29.85 840 24.81 4.6 40.2 41 -7.7 18.2
13:00 1011 29.85 840 24.81 4.3 39.7 42 -7.5 18.5
13:05 1011 29.85 840 24.81 3.9 39 43 -7.7 18.2
13:10 1011 29.85 840 24.81 4 39.1 42 -7.8 17.9
13:15 1010 29.83 840 24.81 4 39.2 40 -8.5 16.8
13:20 1010 29.83 840 24.81 4.5 40 41 -7.8 17.9
13:25 1010 29.83 840 24.81 4.5 40.1 39 -8.3 17.1
13:30 1010 29.83 840 24.81 4.7 40.4 38 -8.6 16.5
13:35 1010 29.83 839 24.78 5.1 41.3 38 -8.1 17.4
13:40 1010 29.83 839 24.78 5.5 41.9 36 -8.3 17.1
13:45 1010 29.83 839 24.78 5.2 41.3 37 -8.4 16.9
13:50 1010 29.83 839 24.78 5.7 42.2 36 -8.2 17.2
13:55 1010 29.83 839 24.78 6.1 43.1 34 -8.6 16.6
14:00 1010 29.83 839 24.78 6.3 43.3 35 -8.1 17.5
14:05 1010 29.83 839 24.78 6.6 43.8 32 -8.9 15.9
14:10 1010 29.83 839 24.78 7 44.6 32 -8.6 16.5
14:15 1010 29.83 839 24.78 7.8 46 30 -8.9 15.9
14:20 1010 29.83 839 24.78 7.3 45.1 29 -9.8 14.4
14:25 1010 29.83 839 24.78 6.5 43.8 28 -10.7 12.8
14:30 1010 29.83 839 24.78 6.7 44.1 28 -10.8 12.6
14:35 1010 29.83 839 24.78 6.6 43.8 29 -10.2 13.7
14:40 1010 29.83 839 24.78 7 44.6 33 -8.3 17.1
14:45 1010 29.83 839 24.78 6.5 43.7 36 -7.4 18.6
14:50 1010 29.83 839 24.78 6 42.8 35 -8.1 17.4
14:55 1010 29.83 839 24.78 7.3 45.1 30 -9.1 15.6
15:00 1010 29.83 839 24.78 7.9 46.2 28 -9.6 14.8
15:05 1010 29.83 839 24.78 7.9 46.1 27 -10 13.9
15:10 1010 29.83 839 24.78 7.6 45.6 29 -9.5 14.9
15:15 1010 29.83 839 24.78 7.4 45.3 31 -8.8 16.2
15:20 1010 29.83 839 24.78 6.2 43.2 35 -8.1 17.3
15:25 1010 29.83 839 24.78 5.7 42.3 34 -9.2 15.5
15:30 1010 29.83 839 24.78 5.4 41.8 37 -8.1 17.4
15:35 1009 29.8 839 24.78 5.5 41.8 35 -8.9 16
15:40 1009 29.8 839 24.78 6 42.8 34 -8.7 16.3
15:45 1009 29.8 839 24.78 6 42.7 36 -8.1 17.3
15:50 1009 29.8 839 24.78 6.5 43.7 33 -8.7 16.3
15:55 1009 29.8 839 24.78 7 44.6 33 -8.4 17
16:00 1009 29.8 839 24.78 7.3 45.1 30 -9 15.8
16:05 1009 29.8 839 24.78 7 44.6 31 -9.1 15.6
16:10 1009 29.8 839 24.78 6.9 44.5 32 -8.7 16.4
16:15 1009 29.8 839 24.78 6.5 43.7 34 -8.2 17.3
16:20 1010 29.83 839 24.78 6.2 43.2 34 -8.6 16.6
16:25 1010 29.83 839 24.78 6.3 43.3 34 -8.6 16.5
16:30 1010 29.83 839 24.78 6.2 43.2 34 -8.6 16.5
16:35 1010 29.83 839 24.78 5.9 42.7 36 -8 17.5
16:40 1010 29.83 839 24.78 5.1 41.2 39 -7.9 17.8
16:45 1010 29.83 839 24.78 4.8 40.6 41 -7.5 18.5
16:50 1010 29.83 839 24.78 5.1 41.2 38 -8 17.5
16:55 1010 29.83 839 24.78 5.3 41.6 37 -8.2 17.2
17:00 1010 29.83 839 24.78 4.8 40.6 37 -8.8 16.1
17:05 1010 29.83 839 24.78 4.4 40 37 -9.1 15.7
17:10 1010 29.83 839 24.78 4.6 40.3 37 -8.8 16.2
17:15 1010 29.83 839 24.78 4.7 40.5 37 -8.9 16
17:20 1010 29.83 839 24.78 4.7 40.4 37 -8.6 16.4
17:25 1010 29.83 839 24.78 4.8 40.6 38 -8.4 16.8
17:30 1010 29.83 839 24.78 5 41 36 -9 15.8
17:35 1010 29.83 839 24.78 5 41 38 -8.1 17.4
17:40 1010 29.83 839 24.78 4.7 40.5 40 -7.8 18
17:45 1010 29.83 839 24.78 4.5 40.1 39 -8.3 17.1
17:50 1010 29.83 839 24.78 4 39.2 42 -7.7 18.2
17:55 1010 29.83 839 24.78 3.8 38.8 42 -8.1 17.4
18:00 1010 29.83 839 24.78 3.9 39 40 -8.4 16.9
18:05 1010 29.83 839 24.78 3.9 39 42 -7.9 17.7
18:10 1010 29.83 839 24.78 3.8 38.9 41 -8.3 17.1
18:15 1010 29.83 839 24.78 3.7 38.7 40 -8.6 16.5
18:20 1010 29.83 839 24.78 3.8 38.9 39 -8.8 16.1
18:25 1009 29.8 839 24.78 3.6 38.4 44 -7.6 18.4
18:30 1009 29.8 839 24.78 3.3 37.9 45 -7.5 18.5
18:35 1010 29.83 839 24.78 3.2 37.7 44 -7.8 17.9
18:40 1010 29.83 839 24.78 3.2 37.8 43 -8.1 17.5
18:45 1010 29.83 839 24.78 3 37.4 42 -8.8 16.2
18:50 1010 29.83 839 24.78 3 37.4 43 -8.4 17
18:55 1010 29.83 839 24.78 3 37.3 44 -8 17.5
19:00 1010 29.83 839 24.78 2.9 37.1 46 -7.6 18.4
19:05 1010 29.83 839 24.78 2.6 36.8 48 -7.3 18.8
19:10 1010 29.83 839 24.78 2.6 36.7 46 -7.9 17.7
19:15 1010 29.83 839 24.78 2.5 36.5 46 -8 17.6
19:20 1010 29.83 839 24.78 2.5 36.4 45 -8.4 16.9
19:25 1010 29.83 839 24.78 2.7 36.9 41 -9.3 15.3
19:30 1010 29.83 839 24.78 3.2 37.7 40 -9 15.7
19:35 1010 29.83 839 24.78 3.2 37.7 40 -9 15.7
19:40 1010 29.83 839 24.78 3.4 38.1 38 -9.8 14.4
19:45 1010 29.83 839 24.78 3.6 38.6 38 -9.4 15.1
19:50 1010 29.83 839 24.78 3.4 38.2 41 -8.5 16.8
19:55 1010 29.83 839 24.78 2.9 37.2 43 -8.5 16.7
20:00 1010 29.83 839 24.78 2.8 37.1 43 -8.7 16.4
20:05 1010 29.83 839 24.78 2.9 37.1 42 -8.9 16
20:10 1010 29.83 839 24.78 2.7 36.8 46 -7.7 18.1
20:15 1010 29.83 839 24.78 2.3 36.1 47 -7.9 17.8
20:20 1010 29.83 839 24.78 2.1 35.8 46 -8.2 17.2
20:25 1010 29.83 839 24.78 2.2 36 44 -8.9 16.1
20:30 1010 29.83 839 24.78 2.4 36.3 44 -8.6 16.6
20:35 1010 29.83 839 24.78 2.4 36.3 45 -8.3 17.1
20:40 1010 29.83 839 24.78 2.3 36.1 45 -8.6 16.6
20:45 1010 29.83 839 24.78 2.4 36.3 43 -8.9 16
20:50 1010 29.83 839 24.78 2.4 36.3 47 -7.9 17.8
20:55 1010 29.83 839 24.78 2.1 35.9 46 -8.2 17.2
21:00 1010 29.83 839 24.78 2 35.6 47 -8.2 17.2
21:05 1010 29.83 839 24.78 2 35.5 48 -7.8 17.9
21:10 1010 29.83 839 24.78 1.7 35 50 -7.8 18
21:15 1010 29.83 839 24.78 1.6 34.8 50 -7.7 18.1
21:20 1010 29.83 839 24.78 1.7 35 49 -8 17.6
21:25 1010 29.83 839 24.78 1.9 35.5 47 -8.3 17
21:30 1010 29.83 839 24.78 2.3 36.1 47 -7.8 18
21:35 1010 29.83 839 24.78 2.2 35.9 46 -8.3 17
21:40 1010 29.83 839 24.78 2.2 35.9 46 -8.4 17
21:45 1010 29.83 839 24.78 2.2 35.9 47 -8.1 17.4
21:50 1010 29.83 839 24.78 2.2 35.9 46 -8.2 17.2
21:55 1010 29.83 839 24.78 2.3 36.1 46 -8.3 17.1
22:00 1010 29.83 839 24.78 2.6 36.6 43 -8.9 15.9
22:05 1010 29.83 839 24.78 2.9 37.2 42 -8.7 16.3
22:10 1010 29.83 840 24.81 2.8 37.1 43 -8.5 16.7
22:15 1010 29.83 840 24.81 2.9 37.2 43 -8.5 16.8
22:20 1010 29.83 840 24.81 2.7 36.9 45 -8.1 17.5
22:25 1010 29.83 840 24.81 2.6 36.7 46 -7.7 18.1
22:30 1010 29.83 840 24.81 2.4 36.4 48 -7.5 18.4
22:35 1010 29.83 840 24.81 2.3 36.2 48 -7.6 18.4
22:40 1010 29.83 840 24.81 2.3 36.2 49 -7.3 18.8
22:45 1010 29.83 840 24.81 2.3 36.2 49 -7.4 18.7
22:50 1011 29.85 840 24.81 2.3 36.1 49 -7.2 19
22:55 1011 29.85 840 24.81 2.3 36.1 50 -7 19.4
23:00 1011 29.85 840 24.81 2.3 36.1 50 -7.2 19.1
23:05 1011 29.85 840 24.81 2.3 36.1 51 -7 19.5
23:10 1011 29.85 840 24.81 2.4 36.4 50 -7 19.5
23:15 1011 29.85 840 24.81 2.4 36.4 51 -6.8 19.7
23:20 1011 29.85 840 24.81 2.4 36.3 50 -6.9 19.6
23:25 1011 29.85 840 24.81 2.5 36.4 49 -7.1 19.3
23:30 1011 29.85 840 24.81 2.4 36.4 49 -7.1 19.2
23:35 1011 29.85 840 24.81 2.5 36.5 50 -7 19.4
23:40 1011 29.85 840 24.81 2.5 36.5 50 -7 19.4
23:45 1011 29.85 840 24.81 2.6 36.7 48 -7.2 19
23:50 1011 29.85 840 24.81 2.6 36.6 49 -7.2 19
23:55 1011 29.85 840 24.81 2.5 36.5 51 -6.7 19.9
24:00 1011 29.85 840 24.81 2.1 35.9 51 -6.9 19.6